createdAt,value
2018-06-14T00:01:35.902Z,75.99
2018-06-14T00:07:42.299Z,75.77
2018-06-14T00:13:47.950Z,75.35
2018-06-14T00:19:54.673Z,76.05
2018-06-14T00:26:00.745Z,75.79
2018-06-14T00:32:06.476Z,75.36
2018-06-14T00:38:12.158Z,75.45
2018-06-14T00:44:17.841Z,75.77
2018-06-14T00:50:24.236Z,76.74
2018-06-14T00:56:36.121Z,76.31
2018-06-14T01:02:41.941Z,76.57
2018-06-14T01:08:47.663Z,76.58
2018-06-14T01:14:54.811Z,77.25
2018-06-14T01:21:00.535Z,76.33
2018-06-14T01:27:10.008Z,76.91
2018-06-14T01:33:15.782Z,76.77
2018-06-14T01:39:21.968Z,76.83
2018-06-14T01:45:27.821Z,77.35
2018-06-14T01:51:33.553Z,77.15
2018-06-14T01:57:39.284Z,77.56
2018-06-14T02:03:45.045Z,77.58
2018-06-14T02:09:51.144Z,78.02
2018-06-14T02:15:57.153Z,78.05
2018-06-14T02:22:02.777Z,78.11
2018-06-14T02:28:08.673Z,78.12
2018-06-14T02:34:14.376Z,78.85
2018-06-14T02:40:20.938Z,78.46
2018-06-14T02:46:26.920Z,77.55
2018-06-14T02:52:32.767Z,78.96
2018-06-14T02:58:38.455Z,78.80
2018-06-14T03:04:44.396Z,79.53
2018-06-14T03:10:51.879Z,79.53
2018-06-14T03:16:58.511Z,78.90
2018-06-14T03:23:04.179Z,76.46
2018-06-14T03:29:09.530Z,77.70
2018-06-14T03:35:15.364Z,78.91
2018-06-14T03:41:22.600Z,80.27
2018-06-14T03:47:28.580Z,80.03
2018-06-14T03:53:34.558Z,80.05
2018-06-14T03:59:40.309Z,78.66
2018-06-14T04:05:45.983Z,79.17
2018-06-14T04:11:54.039Z,79.59
2018-06-14T04:18:03.976Z,80.25
2018-06-14T04:24:09.964Z,80.04
2018-06-14T04:30:15.622Z,78.95
2018-06-14T04:36:23.754Z,78.86
2018-06-14T04:42:29.909Z,77.17
2018-06-14T04:48:36.349Z,76.68
2018-06-14T04:54:42.031Z,76.81
2018-06-14T05:00:48.097Z,75.87
2018-06-14T05:06:53.795Z,76.80
2018-06-14T05:12:59.526Z,76.87
2018-06-14T05:19:05.553Z,76.02
2018-06-14T05:25:11.245Z,75.03
2018-06-14T05:31:17.173Z,72.39
2018-06-14T05:37:23.042Z,71.76
2018-06-14T05:43:28.704Z,69.34
2018-06-14T05:49:34.752Z,68.69
2018-06-14T05:55:40.070Z,67.35
2018-06-14T06:01:45.657Z,65.60
2018-06-14T06:07:51.806Z,67.12
2018-06-14T06:13:57.985Z,65.56
2018-06-14T06:20:03.966Z,63.92
2018-06-14T06:26:09.967Z,63.69
2018-06-14T06:32:15.680Z,62.50
2018-06-14T06:38:21.914Z,61.84
2018-06-14T06:44:27.880Z,61.17
2018-06-14T06:50:34.014Z,60.99
2018-06-14T06:56:39.650Z,59.90
2018-06-14T07:02:45.668Z,60.02
2018-06-14T07:08:51.802Z,59.66
2018-06-14T07:14:57.952Z,57.40
2018-06-14T07:21:03.683Z,55.35
2018-06-14T07:27:09.565Z,52.99
2018-06-14T07:33:15.238Z,52.56
2018-06-14T07:39:21.473Z,51.60
2018-06-14T07:45:27.067Z,50.42
2018-06-14T07:51:33.765Z,50.12
2018-06-14T07:57:39.791Z,50.57
2018-06-14T08:03:45.574Z,48.69
2018-06-14T08:09:52.011Z,49.61
2018-06-14T08:15:57.941Z,50.05
2018-06-14T08:22:03.694Z,50.54
2018-06-14T08:28:09.437Z,53.38
2018-06-14T08:34:15.361Z,51.61
2018-06-14T08:40:21.967Z,50.58
2018-06-14T08:46:27.858Z,50.14
2018-06-14T08:52:33.569Z,48.73
2018-06-14T08:58:39.317Z,48.74
2018-06-14T09:04:44.891Z,47.69
2018-06-14T09:10:51.071Z,48.13
2018-06-14T09:16:57.635Z,45.08
2018-06-14T09:23:03.555Z,44.54
2018-06-14T09:29:09.389Z,42.68
2018-06-14T09:35:15.372Z,41.15
2018-06-14T09:41:21.590Z,39.83
2018-06-14T09:47:27.374Z,40.47
2018-06-14T09:53:33.048Z,41.16
2018-06-14T09:59:38.770Z,43.50
2018-06-14T10:05:44.483Z,42.13
2018-06-14T10:11:50.396Z,42.49
2018-06-14T10:17:56.052Z,40.90
2018-06-14T10:24:01.909Z,40.92
2018-06-14T10:30:07.689Z,40.69
2018-06-14T10:36:13.423Z,38.80
2018-06-14T10:42:19.235Z,36.97
2018-06-14T10:48:25.292Z,36.55
2018-06-14T10:54:31.086Z,38.17
2018-06-14T11:00:36.775Z,37.73
2018-06-14T11:06:42.864Z,38.47
2018-06-14T11:12:49.839Z,37.25
2018-06-14T11:18:55.566Z,36.60
2018-06-14T11:25:02.814Z,35.25
2018-06-14T11:31:08.579Z,34.75
2018-06-14T11:37:14.395Z,34.44
2018-06-14T11:43:20.218Z,35.63
2018-06-14T11:49:26.807Z,35.31
2018-06-14T11:55:32.488Z,33.28
2018-06-14T12:01:38.164Z,31.23
2018-06-14T12:07:43.962Z,32.95
2018-06-14T12:13:49.853Z,32.43
2018-06-14T12:19:56.534Z,31.84
2018-06-14T12:26:02.285Z,31.59
2018-06-14T12:32:08.089Z,32.76
2018-06-14T12:38:13.804Z,30.50
2018-06-14T12:44:20.062Z,31.33
2018-06-14T12:50:26.153Z,31.76
2018-06-14T12:56:31.769Z,32.42
2018-06-14T13:02:37.393Z,33.67
2018-06-14T13:08:43.115Z,31.20
2018-06-14T13:14:49.135Z,31.51
2018-06-14T13:20:55.701Z,31.78
2018-06-14T13:27:01.416Z,31.39
2018-06-14T13:33:07.216Z,30.80
2018-06-14T13:39:12.943Z,30.65
2018-06-14T13:45:18.589Z,29.97
2018-06-14T13:51:24.347Z,32.28
2018-06-14T13:57:29.985Z,31.11
2018-06-14T14:03:36.639Z,31.50
2018-06-14T14:09:42.556Z,31.04
2018-06-14T14:15:48.219Z,31.41
2018-06-14T14:21:54.418Z,31.41
2018-06-14T14:28:00.269Z,29.05
2018-06-14T14:34:06.657Z,30.33
2018-06-14T14:40:12.598Z,30.80
2018-06-14T14:46:18.576Z,31.99
2018-06-14T14:52:25.219Z,30.94
2018-06-14T14:58:30.933Z,30.19
2018-06-14T15:04:36.676Z,29.41
2018-06-14T15:10:42.561Z,29.87
2018-06-14T15:16:48.067Z,31.13
2018-06-14T15:22:55.189Z,30.09
2018-06-14T15:29:01.031Z,31.10
2018-06-14T15:35:06.953Z,29.27
2018-06-14T15:41:13.128Z,31.54
2018-06-14T15:47:18.795Z,32.28
2018-06-14T15:53:24.579Z,31.78
2018-06-14T15:59:30.340Z,31.16
2018-06-14T16:05:36.021Z,31.53
2018-06-14T16:11:42.370Z,32.63
2018-06-14T16:17:48.000Z,31.76
2018-06-14T16:23:54.384Z,32.71
2018-06-14T16:29:59.995Z,34.83
2018-06-14T16:36:06.304Z,34.87
2018-06-14T16:42:11.995Z,32.41
2018-06-14T16:48:17.905Z,32.62
2018-06-14T16:54:24.364Z,33.92
2018-06-14T17:00:30.453Z,35.04
2018-06-14T17:06:36.100Z,35.21
2018-06-14T17:12:41.785Z,35.45
2018-06-14T17:18:47.432Z,37.87
2018-06-14T17:24:53.607Z,38.78
2018-06-14T17:30:59.492Z,40.50
2018-06-14T17:37:05.144Z,42.27
2018-06-14T17:43:11.215Z,42.39
2018-06-14T17:49:16.801Z,41.01
2018-06-14T17:55:22.651Z,41.79
2018-06-14T18:01:28.609Z,42.76
2018-06-14T18:07:35.086Z,43.98
2018-06-14T18:13:40.126Z,45.78
2018-06-14T18:19:46.329Z,43.95
2018-06-14T18:25:53.557Z,43.88
2018-06-14T18:31:59.182Z,46.52
2018-06-14T18:38:05.104Z,47.65
2018-06-14T18:44:10.887Z,48.71
2018-06-14T18:50:16.520Z,46.83
2018-06-14T18:56:23.143Z,48.18
2018-06-14T19:02:28.966Z,46.42
2018-06-14T19:08:34.915Z,47.70
2018-06-14T19:14:40.976Z,47.75
2018-06-14T19:20:46.732Z,47.78
2018-06-14T19:26:53.376Z,48.62
2018-06-14T19:32:59.172Z,53.45
2018-06-14T19:39:07.866Z,56.45
2018-06-14T19:45:13.679Z,59.77
2018-06-14T19:51:19.957Z,61.91
2018-06-14T19:57:26.058Z,63.69
2018-06-14T20:03:31.848Z,66.38
2018-06-14T20:09:37.588Z,70.36
2018-06-14T20:15:43.274Z,73.09
2018-06-14T20:21:48.965Z,73.94
2018-06-14T20:27:56.082Z,74.64
2018-06-14T20:34:01.958Z,75.00
2018-06-14T20:40:07.707Z,75.71
2018-06-14T20:46:13.319Z,76.11
2018-06-14T20:52:19.444Z,75.65
2018-06-14T20:58:26.023Z,75.29
2018-06-14T21:04:31.762Z,76.33
2018-06-14T21:10:37.504Z,75.73
2018-06-14T21:16:43.247Z,76.74
2018-06-14T21:22:48.905Z,76.44
2018-06-14T21:28:55.181Z,74.92
2018-06-14T21:35:00.847Z,75.17
2018-06-14T21:41:06.668Z,75.25
2018-06-14T21:47:12.428Z,75.43
2018-06-14T21:53:18.277Z,75.54
2018-06-14T22:09:09.132Z,77.54
2018-06-14T22:15:14.757Z,76.65
2018-06-14T22:21:20.765Z,77.50
2018-06-14T22:27:27.590Z,77.42
2018-06-14T22:33:51.584Z,76.15
2018-06-14T22:39:57.344Z,75.98
2018-06-14T22:46:03.417Z,76.36
2018-06-14T22:53:17.138Z,76.27
2018-06-14T22:59:23.861Z,76.43
2018-06-14T23:05:30.220Z,76.75
2018-06-14T23:11:35.900Z,75.19
2018-06-14T23:17:41.942Z,74.58
2018-06-14T23:23:47.629Z,75.74
2018-06-14T23:29:54.531Z,76.67
2018-06-14T23:36:00.289Z,77.11
2018-06-14T23:42:06.471Z,77.22
2018-06-14T23:48:12.192Z,77.25
2018-06-14T23:54:18.005Z,76.70
